gordon.dewis.ca - Random musings from Gordon

Subscribe

Monday morning’s commute

December 09, 2012 @ 22:55 By: gordon Category: Weather

Monday morning’s commute is going to have a high suck factor. The overnight forecast tonight is calling for snow, blowing snow, snow pellets, freezing rain, mist, ice pellets, all with fell winds from the east. The freezing rain and mist is forecast to switch to “just” rain and mist around 1pm Monday afternoon.

TAF CYOW 100245Z 1003/1024 07015KT P6SM OVC012
FM100400 08015G25KT 11/2SM -SN VV012 TEMPO 1004/1006 6SM -SN
FM100600 08015G25KT 1/2SM SN BLSN VV007 TEMPO 1006/1009 2SM -SNPL OVC010 PROB30 1006/1009 4SM -FZRA BR
FM100900 08015G25KT 4SM -FZRA -PL BR OVC005
FM101200 09012KT 2SM -FZRA BR OVC003
FM101800 10005KT 2SM -RA BR OVC003
FM102100 27015KT P6SM SCT004 BKN020 OVC100
FM102300 29015G25KT P6SM SCT025 BKN120
RMK NXT FCST BY 100600Z=

I’m glad I live close enough to work that I can walk to the office.

Leave a Reply

CAPTCHA Image
*